Time;durP1;ratioP1;P1;durP2;ratioP2;P2;SDS_P1;SDS_P2;PMS_P1;PMS_P2;Temp;Humidity;BMP_temperature;BMP_pressure;BME280_temperature;BME280_humidity;BME280_pressure;Samples;Min_cycle;Max_cycle;Signal;HPM_P1;HPM_P2
2022/05/03 00:02:39;;;;;;;53.20;42.00;;;;;;;10.15;58.54;100389.67;109352;1262;21974;-79
2022/05/03 00:05:14;;;;;;;51.10;39.90;;;;;;;10.06;58.69;100390.48;110016;1262;22680;-80
2022/05/03 00:08:40;;;;;;;50.80;39.80;;;;;;;10.02;58.94;100392.56;109145;1270;23594;-80
2022/05/03 00:11:32;;;;;;;52.50;40.50;;;;;;;9.96;58.98;100391.59;108965;1270;23049;-79
2022/05/03 00:14:19;;;;;;;55.80;41.60;;;;;;;9.92;59.14;100387.92;108981;1267;21995;-80
2022/05/03 00:16:52;;;;;;;65.10;48.90;;;;;;;9.91;59.34;100391.02;109216;1267;21978;-81
2022/05/03 00:19:22;;;;;;;55.50;38.90;;;;;;;9.92;59.53;100389.91;108764;1271;23611;-79
2022/05/03 00:21:52;;;;;;;51.80;38.90;;;;;;;9.92;59.46;100389.82;109188;1270;22104;-80
2022/05/03 00:24:23;;;;;;;49.00;37.70;;;;;;;9.93;59.49;100388.85;109182;1270;22036;-80
2022/05/03 00:26:54;;;;;;;44.50;37.40;;;;;;;9.93;59.50;100387.96;109383;1264;23045;-80
2022/05/03 00:29:24;;;;;;;47.30;38.20;;;;;;;9.93;59.55;100389.79;109586;1263;22371;-79
2022/05/03 00:31:56;;;;;;;43.70;36.20;;;;;;;9.92;59.66;100392.90;109502;1264;21979;-81
2022/05/03 00:34:27;;;;;;;44.60;36.80;;;;;;;9.89;59.63;100391.70;109297;1263;22985;-79
2022/05/03 00:36:57;;;;;;;43.20;36.30;;;;;;;9.85;59.72;100390.41;109125;1259;22843;-80
2022/05/03 00:39:27;;;;;;;40.40;35.20;;;;;;;9.82;59.72;100389.32;110807;1251;21971;-80
2022/05/03 00:42:20;;;;;;;40.80;34.70;;;;;;;9.80;59.80;100390.21;110878;1251;21965;-79
2022/05/03 00:45:40;;;;;;;41.30;35.90;;;;;;;9.79;59.85;100384.36;111045;1251;22474;-79
2022/05/03 00:49:09;;;;;;;47.30;35.00;;;;;;;9.79;60.03;100384.94;110326;1257;22177;-81
2022/05/03 00:51:52;;;;;;;39.90;34.30;;;;;;;9.78;60.31;100387.27;109693;1263;24616;-79
2022/05/03 00:54:41;;;;;;;38.00;33.70;;;;;;;9.82;60.42;100387.25;109362;1264;23742;-81
2022/05/03 00:59:01;;;;;;;41.00;33.60;;;;;;;9.85;60.49;100389.46;109606;1263;22067;-80
2022/05/03 01:02:09;;;;;;;37.00;32.40;;;;;;;9.87;60.56;100387.72;109437;1265;22272;-81
2022/05/03 01:05:11;;;;;;;38.40;31.40;;;;;;;9.87;60.47;100389.34;109268;1267;21975;-81
2022/05/03 01:08:03;;;;;;;37.80;33.80;;;;;;;9.87;60.31;100393.19;109074;1270;22303;-81
2022/05/03 01:11:20;;;;;;;35.30;31.00;;;;;;;9.85;60.43;100386.92;109128;1267;21993;-80
2022/05/03 01:14:10;;;;;;;42.70;33.30;;;;;;;9.83;60.58;100389.27;109572;1263;21969;-81
2022/05/03 01:16:52;;;;;;;43.00;32.60;;;;;;;9.83;60.65;100392.70;109813;1262;22040;-81
2022/05/03 01:19:46;;;;;;;41.00;33.40;;;;;;;9.88;60.68;100392.05;110058;1259;21975;-81
2022/05/03 01:23:39;;;;;;;43.20;33.40;;;;;;;9.90;60.52;100386.73;110117;1259;21978;-81
2022/05/03 01:27:06;;;;;;;41.70;32.80;;;;;;;9.89;60.54;100384.73;110481;1253;22285;-80
2022/05/03 01:29:36;;;;;;;40.80;34.50;;;;;;;9.87;60.56;100378.73;110368;1258;21979;-80
2022/05/03 01:32:09;;;;;;;38.50;30.70;;;;;;;9.88;60.61;100383.09;109518;1264;22765;-80
2022/05/03 01:34:57;;;;;;;39.50;32.10;;;;;;;9.86;60.67;100376.73;109325;1267;22028;-80
2022/05/03 01:37:54;;;;;;;37.60;30.80;;;;;;;9.85;60.68;100378.95;109367;1267;23833;-80
2022/05/03 01:40:52;;;;;;;42.70;32.00;;;;;;;9.85;60.69;100380.40;109097;1270;22598;-82
2022/05/03 01:43:45;;;;;;;43.00;34.20;;;;;;;9.84;60.75;100382.80;108581;1276;21997;-80
2022/05/03 01:46:30;;;;;;;49.90;34.30;;;;;;;9.83;60.55;100382.89;108580;1276;22119;-81
2022/05/03 01:52:39;;;;;;;44.70;35.40;;;;;;;9.79;60.65;100379.82;108987;1269;24318;-82
2022/05/03 01:55:15;;;;;;;42.00;35.00;;;;;;;9.73;60.71;100380.77;109030;1272;23854;-82
2022/05/03 01:58:22;;;;;;;43.40;34.60;;;;;;;9.69;60.84;100378.95;108752;1276;21987;-81
2022/05/03 02:01:19;;;;;;;41.30;32.90;;;;;;;9.62;61.07;100376.45;108917;1267;23022;-81
2022/05/03 02:04:39;;;;;;;41.40;35.30;;;;;;;9.57;61.19;100381.05;109196;1265;21992;-82
2022/05/03 02:07:30;;;;;;;41.80;34.50;;;;;;;9.54;61.26;100376.23;109266;1267;21973;-80
2022/05/03 02:10:12;;;;;;;40.40;32.90;;;;;;;9.54;61.43;100375.98;108942;1273;22423;-79
2022/05/03 02:12:50;;;;;;;36.40;32.40;;;;;;;9.55;61.55;100377.09;108796;1269;22229;-80
2022/05/03 02:15:44;;;;;;;38.30;32.40;;;;;;;9.57;61.70;100373.50;108886;1264;21977;-81
2022/05/03 02:18:35;;;;;;;43.80;32.70;;;;;;;9.58;61.82;100369.17;109702;1260;21977;-81
2022/05/03 02:21:18;;;;;;;39.80;32.30;;;;;;;9.57;61.78;100366.75;109519;1264;21967;-80
2022/05/03 02:24:17;;;;;;;40.30;34.30;;;;;;;9.56;61.74;100367.66;109713;1264;22436;-80
2022/05/03 02:27:01;;;;;;;38.50;33.70;;;;;;;9.51;61.79;100368.70;109566;1263;21992;-82
2022/05/03 02:29:57;;;;;;;36.40;30.90;;;;;;;9.46;61.80;100370.08;110475;1257;21967;-80
2022/05/03 02:32:57;;;;;;;37.50;31.80;;;;;;;9.42;61.93;100369.38;110211;1256;22008;-81
2022/05/03 02:35:33;;;;;;;41.60;30.40;;;;;;;9.40;61.96;100366.11;110527;1259;23074;-81
2022/05/03 02:38:06;;;;;;;36.90;32.10;;;;;;;9.40;62.03;100358.69;110254;1259;21981;-81
2022/05/03 02:40:44;;;;;;;43.90;32.20;;;;;;;9.39;61.86;100359.68;110738;1252;21971;-81
2022/05/03 02:43:17;;;;;;;39.80;31.90;;;;;;;9.39;61.98;100359.02;110765;1252;22911;-81
2022/05/03 02:46:00;;;;;;;40.00;32.20;;;;;;;9.39;62.09;100357.04;111010;1252;21958;-81
2022/05/03 02:48:40;;;;;;;42.10;32.90;;;;;;;9.40;62.29;100354.16;110672;1252;21963;-81
2022/05/03 02:51:19;;;;;;;40.40;32.10;;;;;;;9.39;62.26;100360.23;110245;1257;22438;-81
2022/05/03 02:53:57;;;;;;;40.50;32.50;;;;;;;9.36;62.31;100360.05;110044;1257;21966;-82
2022/05/03 02:56:47;;;;;;;42.50;31.80;;;;;;;9.32;62.43;100358.16;110216;1259;23612;-81
2022/05/03 03:02:43;;;;;;;44.30;33.50;;;;;;;9.25;62.65;100363.64;109574;1263;23251;-79
2022/05/03 03:05:22;;;;;;;41.70;30.90;;;;;;;9.22;62.72;100364.35;109528;1263;23580;-81
2022/05/03 03:07:56;;;;;;;41.70;31.40;;;;;;;9.21;62.88;100359.27;109559;1261;22763;-81
2022/05/03 03:10:52;;;;;;;43.10;31.60;;;;;;;9.22;62.79;100361.85;110122;1255;21989;-81
2022/05/03 03:14:00;;;;;;;38.40;30.70;;;;;;;9.21;62.87;100367.27;110042;1257;21965;-83
2022/05/03 03:17:18;;;;;;;35.10;31.10;;;;;;;9.18;63.11;100371.89;110637;1256;23702;-82
2022/05/03 03:20:17;;;;;;;38.30;30.70;;;;;;;9.19;63.45;100369.88;110297;1256;23055;-85
2022/05/03 03:23:08;;;;;;;38.50;31.00;;;;;;;9.22;63.63;100369.45;110072;1256;23078;-84
2022/05/03 03:25:50;;;;;;;39.80;30.60;;;;;;;9.23;63.55;100365.98;109970;1257;24397;-86
2022/05/03 03:28:28;;;;;;;40.80;32.60;;;;;;;9.23;63.52;100365.81;109988;1257;21972;-83
2022/05/03 03:31:00;;;;;;;37.50;31.60;;;;;;;9.23;63.41;100358.06;110226;1257;22755;-81
2022/05/03 03:33:32;;;;;;;38.20;30.60;;;;;;;9.22;63.38;100359.02;110237;1257;21977;-81
2022/05/03 03:36:07;;;;;;;39.70;30.60;;;;;;;9.22;63.42;100361.00;110319;1255;24139;-80
2022/05/03 03:38:45;;;;;;;48.00;35.60;;;;;;;9.21;63.39;100363.36;109969;1260;23616;-81
2022/05/03 03:41:17;;;;;;;48.10;37.70;;;;;;;9.22;63.47;100361.65;109920;1260;21968;-81
2022/05/03 03:43:56;;;;;;;46.00;34.70;;;;;;;9.24;63.58;100359.16;109760;1261;21972;-82
2022/05/03 03:46:28;;;;;;;42.10;35.20;;;;;;;9.26;63.45;100361.23;110053;1257;21963;-83
2022/05/03 03:49:03;;;;;;;45.90;35.50;;;;;;;9.28;63.49;100355.39;110185;1257;23022;-84
2022/05/03 03:52:00;;;;;;;46.70;37.00;;;;;;;9.26;63.50;100354.79;110290;1257;21981;-82
2022/05/03 03:54:34;;;;;;;51.50;39.80;;;;;;;9.24;63.42;100356.33;110161;1256;22786;-83
2022/05/03 03:57:05;;;;;;;48.30;36.60;;;;;;;9.25;63.45;100356.98;110265;1257;24447;-83
2022/05/03 03:59:41;;;;;;;43.20;34.60;;;;;;;9.26;63.56;100356.38;110299;1260;23640;-83
2022/05/03 04:02:11;;;;;;;44.00;35.70;;;;;;;9.31;63.80;100357.43;110237;1256;23585;-82
2022/05/03 04:04:52;;;;;;;39.20;33.10;;;;;;;9.36;63.59;100359.10;110802;1251;21960;-82
2022/05/03 04:07:39;;;;;;;51.40;37.30;;;;;;;9.42;63.54;100356.77;110473;1256;23056;-81
2022/05/03 04:10:12;;;;;;;58.20;42.70;;;;;;;9.50;63.45;100357.33;110266;1257;23466;-81
2022/05/03 04:12:45;;;;;;;49.00;37.00;;;;;;;9.59;63.35;100359.39;110055;1258;21985;-81
2022/05/03 04:15:26;;;;;;;45.40;35.80;;;;;;;9.66;63.21;100363.38;110001;1257;22041;-81
2022/05/03 04:17:58;;;;;;;42.50;33.40;;;;;;;9.71;63.02;100363.08;110290;1257;24402;-82
2022/05/03 04:20:29;;;;;;;45.50;34.70;;;;;;;9.75;62.85;100370.04;110052;1257;22782;-82
2022/05/03 04:23:09;;;;;;;46.10;37.00;;;;;;;9.79;62.77;100373.13;110074;1257;22450;-82
2022/05/03 04:25:42;;;;;;;52.90;37.50;;;;;;;9.83;62.76;100376.30;110013;1258;21992;-83
2022/05/03 04:28:16;;;;;;;43.80;33.40;;;;;;;9.91;62.70;100377.79;110046;1257;21962;-83
2022/05/03 04:30:53;;;;;;;41.10;33.20;;;;;;;9.99;62.51;100375.53;109583;1261;22639;-82
2022/05/03 04:33:27;;;;;;;38.50;31.40;;;;;;;10.08;62.18;100381.25;110199;1256;21992;-82
2022/05/03 04:36:02;;;;;;;32.70;27.60;;;;;;;10.17;61.90;100386.14;110145;1260;21981;-82
2022/05/03 04:38:37;;;;;;;36.70;29.90;;;;;;;10.24;61.41;100386.52;109365;1267;23593;-80
2022/05/03 04:41:15;;;;;;;35.20;30.20;;;;;;;10.26;61.05;100389.21;109404;1267;21988;-80
2022/05/03 04:43:59;;;;;;;39.30;31.50;;;;;;;10.29;60.76;100391.23;109180;1267;23077;-80
2022/05/03 04:46:32;;;;;;;39.40;29.20;;;;;;;10.32;60.63;100392.85;109293;1267;21984;-80
2022/05/03 04:49:06;;;;;;;35.50;30.50;;;;;;;10.36;60.48;100394.16;109421;1261;21986;-79
2022/05/03 04:51:39;;;;;;;40.10;31.80;;;;;;;10.40;60.42;100396.66;109638;1261;23606;-79
2022/05/03 04:54:09;;;;;;;38.70;31.30;;;;;;;10.47;60.49;100397.55;109824;1257;22059;-80
2022/05/03 04:57:09;;;;;;;32.60;27.90;;;;;;;10.57;60.59;100399.60;110598;1252;23652;-83
2022/05/03 04:59:40;;;;;;;33.30;27.60;;;;;;;10.70;60.35;100400.67;110799;1254;23835;-82
2022/05/03 05:02:09;;;;;;;30.70;26.60;;;;;;;10.84;60.07;100402.70;110746;1252;23591;-82
2022/05/03 05:04:42;;;;;;;36.90;28.50;;;;;;;10.98;59.94;100406.41;110530;1256;22755;-81
2022/05/03 05:07:12;;;;;;;38.10;32.20;;;;;;;11.14;59.88;100406.44;110536;1256;23683;-82
2022/05/03 05:10:23;;;;;;;30.60;27.30;;;;;;;11.29;59.65;100409.72;110288;1256;21989;-80
2022/05/03 05:12:32;;;;;;;38.60;31.00;;;;;;;11.44;59.46;100411.67;110580;1255;22578;-80
2022/05/03 05:15:12;;;;;;;42.30;35.60;;;;;;;11.56;59.12;100413.17;110545;1256;23149;-80
2022/05/03 05:17:53;;;;;;;47.20;39.20;;;;;;;11.71;59.21;100410.45;110594;1256;22109;-79
2022/05/03 05:20:29;;;;;;;51.20;39.40;;;;;;;11.86;59.02;100408.71;110322;1256;21965;-78
2022/05/03 05:23:00;;;;;;;50.40;39.50;;;;;;;12.05;59.19;100410.33;110411;1251;22580;-77
2022/05/03 05:25:52;;;;;;;47.90;38.00;;;;;;;12.31;59.22;100409.80;110670;1249;22023;-78
2022/05/03 05:28:27;;;;;;;49.80;40.20;;;;;;;12.60;59.04;100407.40;110426;1256;22156;-78
2022/05/03 05:31:05;;;;;;;50.90;38.80;;;;;;;12.90;58.81;100408.38;110228;1256;23686;-78
2022/05/03 05:33:41;;;;;;;35.10;30.50;;;;;;;13.27;58.80;100406.43;110263;1256;21960;-77
2022/05/03 05:36:13;;;;;;;33.00;24.50;;;;;;;13.63;57.58;100405.26;110341;1255;22018;-77
2022/05/03 05:38:44;;;;;;;25.00;20.90;;;;;;;14.00;56.21;100408.45;110483;1256;22024;-78
2022/05/03 05:41:17;;;;;;;26.90;19.80;;;;;;;14.38;54.90;100407.23;110314;1257;23601;-78
2022/05/03 05:44:00;;;;;;;23.20;17.60;;;;;;;14.72;52.46;100411.48;110390;1256;21995;-78
2022/05/03 05:46:52;;;;;;;24.30;17.60;;;;;;;15.04;50.49;100414.77;109852;1256;22846;-77
2022/05/03 05:49:42;;;;;;;18.50;14.50;;;;;;;15.41;49.27;100413.45;109602;1261;21992;-79
2022/05/03 05:55:21;;;;;;;17.00;13.60;;;;;;;16.00;46.93;100415.48;109739;1260;21972;-78
2022/05/03 05:57:56;;;;;;;18.70;14.00;;;;;;;16.35;45.54;100418.37;109482;1263;21984;-78
2022/05/03 06:00:26;;;;;;;22.40;13.70;;;;;;;16.66;44.51;100416.91;109107;1267;22442;-79
2022/05/03 06:02:55;;;;;;;22.00;13.30;;;;;;;16.97;43.80;100411.82;108482;1271;22640;-79
2022/05/03 06:05:25;;;;;;;13.80;12.10;;;;;;;17.28;42.64;100412.40;108844;1269;21976;-79
2022/05/03 06:07:55;;;;;;;17.40;11.30;;;;;;;17.47;41.60;100413.98;108880;1269;22173;-78
2022/05/03 06:10:24;;;;;;;12.50;10.70;;;;;;;17.70;40.81;100413.27;108957;1269;21978;-78
2022/05/03 06:12:54;;;;;;;16.70;12.00;;;;;;;17.92;40.32;100414.16;108860;1268;23717;-79
2022/05/03 06:15:24;;;;;;;18.70;13.00;;;;;;;18.12;39.63;100413.91;108887;1267;22159;-79
2022/05/03 06:17:53;;;;;;;15.80;13.70;;;;;;;18.29;39.12;100417.46;108529;1267;23637;-79
2022/05/03 06:20:23;;;;;;;13.50;11.60;;;;;;;18.48;38.97;100422.18;109014;1258;22781;-78
2022/05/03 06:22:52;;;;;;;15.80;12.20;;;;;;;18.73;38.87;100423.27;108829;1266;22064;-79
2022/05/03 06:25:23;;;;;;;21.40;11.40;;;;;;;19.03;38.28;100425.21;109114;1266;23586;-80
2022/05/03 06:27:52;;;;;;;14.50;12.30;;;;;;;19.23;36.89;100423.57;109136;1266;23609;-79
2022/05/03 06:30:21;;;;;;;17.50;12.50;;;;;;;19.38;36.18;100421.63;109156;1266;23620;-78
2022/05/03 06:32:51;;;;;;;16.20;11.40;;;;;;;19.40;35.45;100421.48;109110;1266;21985;-79
2022/05/03 06:35:21;;;;;;;12.80;10.70;;;;;;;19.21;34.87;100422.44;109194;1263;23075;-81
2022/05/03 06:37:50;;;;;;;15.80;10.30;;;;;;;18.94;34.78;100423.94;109782;1259;22097;-79
2022/05/03 06:40:19;;;;;;;14.00;9.80;;;;;;;18.81;35.66;100423.52;109697;1252;22760;-80
2022/05/03 06:42:48;;;;;;;12.40;11.20;;;;;;;18.97;36.43;100424.23;110415;1254;22813;-78
2022/05/03 06:45:18;;;;;;;12.70;11.20;;;;;;;19.01;35.57;100424.45;110328;1252;22014;-79
2022/05/03 06:47:51;;;;;;;14.60;10.30;;;;;;;19.11;36.18;100426.41;109378;1260;235423;-78
2022/05/03 06:50:20;;;;;;;12.80;10.50;;;;;;;19.45;36.12;100427.42;109628;1260;23662;-77
2022/05/03 06:52:52;;;;;;;;;;;;;;;19.74;35.32;100428.51;109334;1260;22070;-79
2022/05/03 06:55:30;;;;;;;11.70;10.50;;;;;;;19.96;35.36;100431.55;109662;1261;23071;-79
2022/05/03 06:57:59;;;;;;;45.30;36.90;;;;;;;20.29;35.31;100434.38;109988;1258;23797;-78
2022/05/03 07:00:28;;;;;;;17.70;15.30;;;;;;;20.55;34.57;100434.73;109051;1263;22024;-80
2022/05/03 07:02:58;;;;;;;13.10;11.10;;;;;;;20.82;34.01;100431.23;109247;1264;22957;-79
2022/05/03 07:05:27;;;;;;;13.70;10.80;;;;;;;21.11;33.88;100431.86;109255;1264;23584;-79
2022/05/03 07:07:59;;;;;;;8.30;7.50;;;;;;;21.48;32.94;100427.20;108890;1269;21981;-80
2022/05/03 07:10:33;;;;;;;10.00;7.00;;;;;;;21.78;32.26;100429.69;109031;1269;23642;-79
2022/05/03 07:13:11;;;;;;;11.10;7.70;;;;;;;22.07;31.42;100424.02;109143;1264;21973;-78
2022/05/03 07:15:46;;;;;;;10.80;8.00;;;;;;;22.23;30.62;100425.85;109263;1264;21995;-82
2022/05/03 07:23:54;;;;;;;10.20;8.40;;;;;;;22.61;30.15;100436.88;109903;1258;21974;-78
2022/05/03 07:26:39;;;;;;;11.00;8.60;;;;;;;22.79;29.61;100436.87;110021;1258;21996;-77
2022/05/03 07:29:08;;;;;;;10.70;9.40;;;;;;;22.83;29.07;100441.08;109253;1263;21981;-76
2022/05/03 07:31:41;;;;;;;12.80;9.90;;;;;;;22.86;29.23;100440.52;108933;1267;23047;-76
2022/05/03 07:34:11;;;;;;;11.70;9.40;;;;;;;22.94;29.34;100442.13;109789;1260;21983;-76
2022/05/03 07:36:42;;;;;;;13.30;9.40;;;;;;;23.22;29.43;100440.83;109644;1260;23782;-77
2022/05/03 07:39:11;;;;;;;15.50;13.30;;;;;;;23.27;28.22;100441.61;109849;1261;23653;-75
2022/05/03 07:41:40;;;;;;;15.10;11.60;;;;;;;23.43;28.88;100443.70;109166;1267;21973;-75
2022/05/03 07:44:12;;;;;;;10.00;8.60;;;;;;;23.75;28.60;100444.48;109090;1266;22011;-76
2022/05/03 07:46:41;;;;;;;12.60;10.20;;;;;;;23.77;27.20;100442.52;109143;1264;23482;-77
2022/05/03 07:49:11;;;;;;;11.10;9.50;;;;;;;23.71;27.25;100441.70;109153;1264;21966;-77
2022/05/03 07:51:44;;;;;;;9.70;8.30;;;;;;;23.72;26.94;100442.46;109193;1264;22050;-76
2022/05/03 07:54:14;;;;;;;13.60;7.70;;;;;;;23.91;27.36;100442.98;109555;1261;22042;-76
2022/05/03 07:56:44;;;;;;;9.40;8.40;;;;;;;24.32;27.10;100448.32;109469;1261;23029;-76
2022/05/03 07:59:13;;;;;;;11.20;8.10;;;;;;;24.65;26.59;100448.02;109542;1261;22049;-76
2022/05/03 08:01:42;;;;;;;10.20;7.70;;;;;;;24.94;25.92;100443.52;109370;1263;22931;-76
2022/05/03 08:04:12;;;;;;;16.60;8.90;;;;;;;25.17;25.79;100448.27;109506;1264;24370;-77
2022/05/03 08:06:41;;;;;;;13.10;7.00;;;;;;;25.39;25.61;100450.54;110094;1254;21992;-76
2022/05/03 08:09:11;;;;;;;9.30;5.90;;;;;;;25.59;25.41;100451.63;110657;1252;21978;-76
2022/05/03 08:11:42;;;;;;;10.80;6.50;;;;;;;25.76;24.35;100451.45;110509;1252;22612;-75
2022/05/03 08:14:12;;;;;;;7.80;5.30;;;;;;;25.65;23.97;100455.40;110368;1254;23059;-75
2022/05/03 08:16:41;;;;;;;8.70;5.40;;;;;;;25.41;24.06;100455.70;110147;1257;22877;-76
2022/05/03 08:19:11;;;;;;;9.00;5.10;;;;;;;25.31;24.36;100454.79;109871;1256;23561;-77
2022/05/03 08:21:40;;;;;;;8.20;3.70;;;;;;;25.43;24.26;100457.64;110217;1256;21963;-76
2022/05/03 08:24:09;;;;;;;4.50;3.60;;;;;;;25.65;23.73;100458.76;110188;1257;21979;-76
2022/05/03 08:26:38;;;;;;;5.90;5.10;;;;;;;25.89;23.40;100460.90;110298;1256;22069;-77
2022/05/03 08:29:07;;;;;;;8.20;4.80;;;;;;;25.98;23.13;100458.17;110408;1256;23584;-76
2022/05/03 08:31:37;;;;;;;8.20;5.30;;;;;;;25.89;23.29;100461.36;110401;1256;22017;-77
2022/05/03 08:34:08;;;;;;;7.90;5.10;;;;;;;25.89;23.43;100462.81;110232;1253;23091;-76
2022/05/03 08:36:37;;;;;;;5.30;4.10;;;;;;;25.93;23.15;100463.90;110221;1255;22023;-76
2022/05/03 08:42:06;;;;;;;5.60;4.50;;;;;;;25.87;22.79;100465.04;110434;1255;23738;-75
2022/05/03 08:44:35;;;;;;;5.70;4.20;;;;;;;25.77;22.97;100462.45;110298;1255;21972;-76
2022/05/03 08:47:06;;;;;;;8.00;4.40;;;;;;;25.81;22.86;100462.89;110426;1256;22188;-77
2022/05/03 08:50:08;;;;;;;8.00;4.10;;;;;;;25.88;22.81;100465.73;110213;1256;22032;-76
2022/05/03 08:52:50;;;;;;;5.00;4.30;;;;;;;25.97;22.68;100464.84;110286;1255;23593;-75
2022/05/03 08:55:19;;;;;;;5.50;4.70;;;;;;;26.07;22.97;100461.35;110422;1252;23861;-76
2022/05/03 08:57:50;;;;;;;9.00;6.20;;;;;;;26.32;22.90;100461.48;110592;1251;21970;-74
2022/05/03 09:00:22;;;;;;;8.40;5.30;;;;;;;26.46;21.92;100457.61;110257;1255;22006;-76
2022/05/03 09:02:57;;;;;;;5.80;4.30;;;;;;;26.37;21.66;100457.27;110170;1256;22003;-76
2022/05/03 09:05:27;;;;;;;7.10;4.50;;;;;;;26.24;22.36;100457.29;110212;1255;22019;-77
2022/05/03 09:08:00;;;;;;;9.10;4.40;;;;;;;26.34;22.56;100457.36;110055;1258;24374;-77
2022/05/03 09:10:36;;;;;;;6.10;3.90;;;;;;;26.49;22.01;100457.71;109881;1260;23316;-77
2022/05/03 09:13:33;;;;;;;7.80;4.00;;;;;;;26.57;21.88;100459.56;109644;1260;22044;-76
2022/05/03 09:16:18;;;;;;;6.70;4.20;;;;;;;26.69;21.96;100459.13;109783;1263;21979;-76
2022/05/03 09:18:48;;;;;;;7.20;4.50;;;;;;;26.76;21.87;100459.67;109604;1260;22138;-77
2022/05/03 09:24:10;;;;;;;4.80;3.70;;;;;;;26.49;21.31;100459.17;109943;1257;22012;-76
2022/05/03 09:26:39;;;;;;;6.10;4.20;;;;;;;26.28;21.50;100458.88;110188;1257;23042;-76
2022/05/03 09:29:11;;;;;;;5.60;4.20;;;;;;;26.28;21.93;100452.54;110361;1252;22974;-76
2022/05/03 09:31:47;;;;;;;6.80;4.00;;;;;;;26.36;21.52;100451.08;110725;1253;21956;-76
2022/05/03 09:34:19;;;;;;;5.30;4.00;;;;;;;26.40;21.35;100452.98;110554;1252;23625;-75
2022/05/03 09:37:02;;;;;;;7.80;4.10;;;;;;;26.37;20.96;100454.65;110807;1250;21976;-76
2022/05/03 09:39:47;;;;;;;5.30;4.20;;;;;;;26.21;21.52;100452.91;110510;1252;22035;-77
2022/05/03 09:42:20;;;;;;;5.20;4.20;;;;;;;26.04;21.46;100450.73;110594;1252;22008;-76
2022/05/03 09:45:00;;;;;;;5.40;4.50;;;;;;;25.98;21.79;100450.98;110516;1252;22731;-78
2022/05/03 09:47:34;;;;;;;6.10;4.80;;;;;;;26.00;21.76;100448.92;110551;1252;22426;-76
2022/05/03 09:50:04;;;;;;;5.60;4.00;;;;;;;26.05;21.76;100446.18;110592;1252;23040;-76
2022/05/03 09:52:37;;;;;;;7.40;4.80;;;;;;;26.07;21.85;100440.33;110679;1252;21969;-77
2022/05/03 09:55:09;;;;;;;8.10;4.60;;;;;;;26.11;21.96;100441.20;110231;1259;22075;-73
2022/05/03 09:57:44;;;;;;;8.40;5.20;;;;;;;25.99;21.71;100439.89;110059;1257;23899;-74
2022/05/03 10:00:17;;;;;;;10.70;5.20;;;;;;;25.80;21.81;100448.48;110129;1258;22040;-77
2022/05/03 10:02:47;;;;;;;7.40;4.40;;;;;;;25.49;21.73;100446.35;110320;1258;21982;-76
2022/05/03 10:05:20;;;;;;;6.20;4.50;;;;;;;25.25;22.02;100445.71;110393;1256;22770;-76
2022/05/03 10:07:52;;;;;;;5.60;4.40;;;;;;;25.24;22.45;100447.77;110193;1258;22017;-76
2022/05/03 10:10:27;;;;;;;5.40;4.30;;;;;;;25.35;22.06;100445.06;109981;1257;21965;-77
2022/05/03 10:12:57;;;;;;;6.10;5.30;;;;;;;25.35;22.12;100445.61;110083;1255;23592;-75
2022/05/03 10:21:21;;;;;;;8.10;4.20;;;;;;;25.35;22.27;100436.31;110537;1252;21950;-75
2022/05/03 10:24:05;;;;;;;13.10;6.00;;;;;;;25.28;22.09;100437.35;110579;1252;21975;-76
2022/05/03 10:26:52;;;;;;;6.30;5.70;;;;;;;25.24;22.08;100437.22;110586;1252;24278;-77
2022/05/03 10:29:26;;;;;;;7.40;6.10;;;;;;;25.17;22.18;100435.94;110827;1251;23103;-77
2022/05/03 10:32:14;;;;;;;7.20;5.40;;;;;;;25.17;22.22;100438.27;110743;1250;23650;-75
2022/05/03 10:34:51;;;;;;;9.00;5.40;;;;;;;25.05;22.32;100433.47;110834;1251;21965;-76
2022/05/03 10:37:46;;;;;;;7.40;5.30;;;;;;;24.87;22.15;100433.25;110771;1252;22957;-78
2022/05/03 10:40:15;;;;;;;7.60;5.40;;;;;;;24.68;22.76;100423.94;110431;1256;21975;-76
2022/05/03 10:43:04;;;;;;;7.80;5.40;;;;;;;24.50;22.47;100422.34;110266;1256;21983;-76
2022/05/03 10:45:49;;;;;;;6.80;5.30;;;;;;;24.15;22.54;100426.98;110317;1257;22961;-75
2022/05/03 10:48:25;;;;;;;33.60;10.50;;;;;;;23.62;22.87;100419.08;110163;1256;23056;-79
2022/05/03 10:51:01;;;;;;;7.30;6.30;;;;;;;23.16;23.81;100416.20;110073;1258;22001;-78
2022/05/03 10:53:36;;;;;;;6.80;6.10;;;;;;;22.81;24.29;100413.30;110016;1258;22426;-78
2022/05/03 10:56:18;;;;;;;6.70;5.30;;;;;;;22.50;24.91;100412.66;110109;1258;21975;-78
2022/05/03 10:59:16;;;;;;;10.20;5.30;;;;;;;22.38;25.56;100408.54;110264;1253;21972;-78
2022/05/03 11:01:55;;;;;;;10.20;5.70;;;;;;;22.14;25.59;100409.40;110064;1259;22996;-78
2022/05/03 11:04:25;;;;;;;6.90;6.20;;;;;;;21.94;25.95;100407.88;110168;1260;21962;-77
2022/05/03 11:06:54;;;;;;;7.50;6.50;;;;;;;21.77;26.02;100402.55;109756;1257;21963;-77
2022/05/03 11:09:28;;;;;;;9.40;6.70;;;;;;;21.66;26.36;100397.02;109840;1259;23099;-79
2022/05/03 11:12:01;;;;;;;7.70;6.20;;;;;;;21.61;26.66;100398.92;109852;1260;22056;-78
2022/05/03 11:14:53;;;;;;;8.10;5.20;;;;;;;21.61;27.00;100399.13;109786;1259;22005;-77
2022/05/03 11:17:23;;;;;;;6.80;5.20;;;;;;;21.53;27.04;100397.30;109067;1268;22084;-79
2022/05/03 11:19:58;;;;;;;6.10;5.10;;;;;;;21.46;27.10;100398.68;109379;1262;22043;-78
2022/05/03 11:22:35;;;;;;;5.40;4.60;;;;;;;21.35;26.72;100394.14;109530;1263;22043;-77
2022/05/03 11:25:13;;;;;;;7.20;5.40;;;;;;;21.16;26.83;100389.88;109655;1263;22540;-77
2022/05/03 11:27:52;;;;;;;6.90;5.20;;;;;;;21.03;27.13;100387.61;109346;1264;21992;-84
2022/05/03 11:30:26;;;;;;;9.30;5.30;;;;;;;20.99;27.40;100383.21;110062;1258;23037;-84
2022/05/03 11:32:57;;;;;;;12.90;5.60;;;;;;;20.99;27.62;100389.88;110040;1260;22240;-84
2022/05/03 11:35:29;;;;;;;12.70;5.60;;;;;;;21.01;27.45;100386.06;109832;1263;23707;-83
2022/05/03 11:38:02;;;;;;;11.60;5.00;;;;;;;21.04;27.52;100383.37;109447;1262;21978;-84
2022/05/03 11:40:31;;;;;;;9.90;5.40;;;;;;;21.07;27.46;100387.59;109805;1262;23234;-83
2022/05/03 11:43:01;;;;;;;8.20;5.60;;;;;;;21.18;27.52;100383.23;109530;1264;21945;-85
2022/05/03 11:45:36;;;;;;;6.20;5.00;;;;;;;21.29;27.59;100385.04;109819;1261;21990;-84
2022/05/03 11:48:08;;;;;;;10.90;5.90;;;;;;;21.33;27.40;100389.91;109652;1264;22026;-84
2022/05/03 11:56:29;;;;;;;10.30;4.90;;;;;;;21.20;27.67;100382.65;110858;1251;22732;-83
2022/05/03 11:58:59;;;;;;;8.60;5.40;;;;;;;21.26;27.90;100378.73;110925;1252;21970;-86
2022/05/03 12:01:34;;;;;;;7.10;5.60;;;;;;;21.33;27.81;100378.09;111531;1252;22353;-86
2022/05/03 12:04:07;;;;;;;11.90;9.60;;;;;;;21.37;27.88;100377.05;110798;1258;21974;-83
2022/05/03 12:06:43;;;;;;;6.70;5.00;;;;;;;21.40;27.82;100379.00;110698;1258;22891;-86
2022/05/03 12:09:18;;;;;;;9.10;5.50;;;;;;;21.45;27.79;100382.21;110738;1258;22008;-85
2022/05/03 12:14:44;;;;;;;11.40;5.50;;;;;;;21.27;27.42;100382.52;110156;1261;23500;-79
2022/05/03 12:17:13;;;;;;;5.30;4.80;;;;;;;21.13;27.49;100376.16;109445;1261;22055;-82
2022/05/03 12:19:44;;;;;;;6.20;5.00;;;;;;;21.08;27.63;100371.91;110019;1261;22014;-81
2022/05/03 12:22:15;;;;;;;18.40;5.20;;;;;;;21.04;27.90;100367.91;110097;1257;24489;-81
2022/05/03 12:24:47;;;;;;;10.50;4.80;;;;;;;21.01;27.96;100366.86;110198;1259;21978;-82
2022/05/03 12:27:16;;;;;;;7.20;5.00;;;;;;;21.02;28.04;100367.66;109983;1258;22794;-82
2022/05/03 12:29:47;;;;;;;7.50;6.20;;;;;;;21.01;27.87;100367.69;110209;1252;22438;-80
2022/05/03 12:32:19;;;;;;;7.60;5.30;;;;;;;21.02;28.07;100366.83;110738;1252;22925;-81
2022/05/03 12:35:01;;;;;;;6.60;5.50;;;;;;;21.10;28.42;100364.81;110590;1255;21962;-80
2022/05/03 12:37:30;;;;;;;7.60;5.40;;;;;;;21.13;28.25;100358.10;109828;1260;21971;-81